Time;durP1;ratioP1;P1;durP2;ratioP2;P2;SDS_P1;SDS_P2;PMS_P1;PMS_P2;Temp;Humidity;BMP_temperature;BMP_pressure;BME280_temperature;BME280_humidity;BME280_pressure;Samples;Min_cycle;Max_cycle;Signal;HPM_P1;HPM_P2
2022/01/30 00:01:24;;;;;;;0.55;0.55;;;5.10;99.90;;;4.35;100.00;98107.50;5012454;28;20116;-47
2022/01/30 00:03:49;;;;;;;0.63;0.60;;;5.10;99.90;;;4.37;100.00;98098.78;5015534;28;20068;-44
2022/01/30 00:06:15;;;;;;;0.80;0.63;;;5.10;99.90;;;4.38;100.00;98095.31;5025830;28;20510;-46
2022/01/30 00:08:41;;;;;;;3.30;0.80;;;5.10;99.90;;;4.44;100.00;98097.03;5014234;28;20033;-45
2022/01/30 00:11:14;;;;;;;1.48;0.70;;;5.20;99.90;;;4.44;100.00;98096.19;5014187;28;20057;-46
2022/01/30 00:13:40;;;;;;;0.77;0.52;;;5.20;99.90;;;4.48;100.00;98101.38;5017916;28;20116;-43
2022/01/30 00:16:09;;;;;;;2.15;0.73;;;5.20;99.90;;;4.50;100.00;98093.53;5014464;28;20088;-47
2022/01/30 00:21:12;;;;;;;0.90;0.60;;;5.30;99.90;;;4.61;100.00;98107.44;5012700;28;20112;-40
2022/01/30 00:23:46;;;;;;;1.05;0.60;;;5.40;99.90;;;4.69;100.00;98104.84;5019997;28;20033;-47
2022/01/30 00:26:14;;;;;;;0.50;0.50;;;5.40;99.90;;;4.73;100.00;98109.16;5016022;28;20043;-43
2022/01/30 00:28:40;;;;;;;0.45;0.45;;;5.50;99.90;;;4.76;100.00;98107.44;5015332;28;20033;-48
2022/01/30 00:31:06;;;;;;;0.50;0.45;;;5.50;99.90;;;4.81;100.00;98096.97;5015545;28;20475;-47
2022/01/30 00:33:32;;;;;;;0.40;0.40;;;5.50;99.90;;;4.82;100.00;98096.06;5023191;28;20100;-46
2022/01/30 00:35:58;;;;;;;0.50;0.45;;;5.50;99.90;;;4.82;100.00;98084.75;5025066;28;20302;-45
2022/01/30 00:38:24;;;;;;;1.33;0.60;;;5.50;99.90;;;4.83;100.00;98094.31;5021101;28;20029;-45
2022/01/30 00:40:51;;;;;;;0.65;0.52;;;5.60;99.90;;;4.85;100.00;98090.00;5028450;28;20036;-45
2022/01/30 00:43:18;;;;;;;1.13;0.70;;;5.60;99.90;;;4.83;100.00;98071.69;5019252;28;20037;-44
2022/01/30 00:45:45;;;;;;;1.60;0.60;;;5.60;99.90;;;4.83;100.00;98044.66;5023659;28;20033;-45
2022/01/30 00:48:11;;;;;;;0.73;0.40;;;5.60;99.90;;;4.98;100.00;98071.63;5027039;28;20400;-46
2022/01/30 00:50:37;;;;;;;0.73;0.47;;;5.70;99.90;;;5.01;100.00;98083.84;5020672;28;20029;-48
2022/01/30 00:53:04;;;;;;;0.55;0.40;;;5.70;99.90;;;5.07;100.00;98082.94;5017836;28;20034;-45
2022/01/30 00:55:31;;;;;;;0.98;0.80;;;5.80;99.90;;;5.16;100.00;98075.03;5020545;28;20468;-45
2022/01/30 00:57:58;;;;;;;0.75;0.70;;;5.80;99.90;;;5.29;100.00;98078.47;5027619;28;20029;-42
2022/01/30 01:00:26;;;;;;;1.70;0.63;;;5.90;99.90;;;5.29;100.00;98076.75;5018122;28;20037;-45
2022/01/30 01:02:52;;;;;;;1.10;0.60;;;6.00;99.90;;;5.38;100.00;98073.19;5024839;28;20447;-48
2022/01/30 01:05:19;;;;;;;1.70;0.95;;;6.00;99.90;;;5.41;100.00;98081.03;5025174;28;20068;-45
2022/01/30 01:07:47;;;;;;;1.60;0.88;;;6.10;99.90;;;5.58;100.00;98080.06;5021986;28;20033;-48
2022/01/30 01:13:11;;;;;;;1.23;0.85;;;6.20;99.90;;;5.68;100.00;98090.44;5022712;28;20037;-47
2022/01/30 01:23:53;;;;;;;1.15;0.75;;;6.50;99.90;;;5.80;100.00;98096.50;5027283;28;21337;-45
2022/01/30 01:26:25;;;;;;;1.33;1.00;;;6.50;99.90;;;5.82;100.00;98108.69;5007742;28;20499;-48
2022/01/30 01:28:51;;;;;;;1.85;1.10;;;6.50;99.90;;;5.81;100.00;98104.31;5026068;28;20470;-45
2022/01/30 01:31:17;;;;;;;1.48;1.00;;;6.50;99.90;;;5.87;100.00;98109.53;5022876;28;20025;-46
2022/01/30 01:36:28;;;;;;;1.42;1.10;;;6.60;99.90;;;6.10;100.00;98092.78;5019463;28;20106;-43
2022/01/30 01:38:54;;;;;;;1.23;0.90;;;6.70;99.90;;;6.05;100.00;98092.00;5026284;28;20033;-45
2022/01/30 01:41:22;;;;;;;1.00;0.90;;;6.70;99.90;;;6.04;100.00;98092.88;5021973;28;20038;-47
2022/01/30 01:43:49;;;;;;;1.13;0.90;;;6.70;99.90;;;6.06;100.00;98085.84;5020382;28;20033;-45
2022/01/30 01:46:21;;;;;;;2.72;0.90;;;6.70;99.90;;;6.00;100.00;98083.31;5017076;28;20044;-44
2022/01/30 01:48:50;;;;;;;1.35;0.88;;;6.70;99.90;;;6.01;100.00;98082.41;5026242;28;20120;-45
2022/01/30 01:51:20;;;;;;;1.10;0.93;;;6.70;99.90;;;6.00;100.00;98080.69;5021050;28;20080;-48
2022/01/30 01:53:49;;;;;;;2.05;0.98;;;6.70;99.90;;;5.94;100.00;98089.44;5018528;28;20060;-44
2022/01/30 01:56:16;;;;;;;2.05;1.40;;;6.60;99.90;;;5.95;100.00;98090.28;5018470;28;20060;-46
2022/01/30 01:58:43;;;;;;;3.38;1.20;;;6.60;99.90;;;5.95;100.00;98087.66;5020695;28;20037;-44
2022/01/30 02:01:09;;;;;;;2.70;1.10;;;6.60;99.90;;;5.90;100.00;98088.59;5019855;28;20024;-48
2022/01/30 02:03:39;;;;;;;4.47;1.20;;;6.60;99.90;;;5.89;100.00;98078.13;5015692;28;20373;-44
2022/01/30 02:06:09;;;;;;;2.42;0.90;;;6.60;99.90;;;5.85;100.00;98074.66;5014217;28;20084;-42
2022/01/30 02:08:39;;;;;;;1.05;0.95;;;6.50;99.90;;;5.86;100.00;98071.13;5016589;28;20125;-41
2022/01/30 02:11:16;;;;;;;2.25;0.80;;;6.50;99.90;;;5.83;100.00;98083.38;5016944;28;20030;-45
2022/01/30 02:27:58;;;;;;;1.35;0.60;;;6.40;99.90;;;5.70;100.00;98074.75;5019895;28;20201;-44
2022/01/30 02:30:29;;;;;;;0.60;0.40;;;6.30;99.90;;;5.68;100.00;98073.88;5019403;28;20573;-45
2022/01/30 02:32:56;;;;;;;0.40;0.40;;;6.30;99.90;;;5.65;100.00;98058.19;5021219;28;20029;-45
2022/01/30 02:35:21;;;;;;;1.20;0.45;;;6.30;99.90;;;5.64;100.00;98061.72;5014579;28;20543;-43
2022/01/30 02:37:48;;;;;;;0.68;0.50;;;6.30;99.90;;;5.63;100.00;98068.66;5015975;28;20036;-46
2022/01/30 02:40:14;;;;;;;0.90;0.60;;;6.30;99.90;;;5.64;100.00;98067.81;5003737;28;20037;-46
2022/01/30 02:42:46;;;;;;;0.50;0.40;;;6.30;99.90;;;5.73;100.00;98074.72;5022505;28;20510;-46
2022/01/30 02:45:13;;;;;;;1.10;0.60;;;6.40;99.90;;;5.67;100.00;98079.97;5018129;28;20106;-48
2022/01/30 02:47:56;;;;;;;2.85;0.60;;;6.30;99.90;;;5.62;100.00;98069.56;5019958;28;20045;-45
2022/01/30 02:50:35;;;;;;;2.45;0.90;;;6.30;99.90;;;5.60;100.00;98066.09;5017959;28;20083;-45
2022/01/30 02:53:03;;;;;;;2.10;0.93;;;6.30;99.90;;;5.55;100.00;98057.41;5024129;28;20044;-47
2022/01/30 02:55:29;;;;;;;5.90;1.50;;;6.30;99.90;;;5.58;100.00;98049.53;5019393;28;20483;-45
2022/01/30 02:57:56;;;;;;;4.35;1.40;;;6.30;99.90;;;5.50;100.00;98046.94;5023146;28;20021;-43
2022/01/30 03:00:21;;;;;;;2.90;1.60;;;6.30;99.90;;;5.63;100.00;98066.06;5014166;28;20042;-44
2022/01/30 03:02:47;;;;;;;5.50;1.70;;;6.30;99.90;;;5.74;100.00;98079.06;5016290;28;20037;-44
2022/01/30 03:05:13;;;;;;;3.15;1.25;;;6.40;99.90;;;5.75;100.00;98083.44;5018785;28;20037;-47
2022/01/30 03:07:39;;;;;;;2.75;1.50;;;6.40;99.90;;;5.71;100.00;98076.50;5022918;28;20075;-43
2022/01/30 03:10:05;;;;;;;4.72;1.60;;;6.40;99.90;;;5.71;100.00;98074.75;5020263;28;20518;-46
2022/01/30 03:12:31;;;;;;;3.67;1.30;;;6.40;99.90;;;5.69;100.00;98080.88;5015226;28;20045;-44
2022/01/30 03:14:56;;;;;;;3.78;1.40;;;6.40;99.90;;;5.72;100.00;98079.09;5020387;28;20034;-45
2022/01/30 03:17:22;;;;;;;3.45;1.20;;;6.40;99.90;;;5.78;100.00;98083.44;5022982;28;20408;-44
2022/01/30 03:19:48;;;;;;;3.85;1.42;;;6.40;99.90;;;5.82;100.00;98098.22;4997196;28;20107;-44
2022/01/30 03:22:14;;;;;;;1.77;1.20;;;6.50;99.90;;;5.80;100.00;98092.13;5015510;28;20076;-46
2022/01/30 03:24:39;;;;;;;3.72;1.45;;;6.50;99.90;;;5.77;100.00;98101.75;5017173;28;20076;-49
2022/01/30 03:27:07;;;;;;;1.33;0.75;;;6.50;99.90;;;5.77;100.00;98099.13;5017764;28;20029;-45
2022/01/30 03:29:34;;;;;;;1.23;0.82;;;6.50;99.90;;;5.76;100.00;98105.22;5010106;28;20033;-47
2022/01/30 03:31:59;;;;;;;3.08;1.00;;;6.40;99.90;;;5.70;100.00;98112.25;5022703;28;20061;-45
2022/01/30 03:34:25;;;;;;;3.33;1.15;;;6.40;99.90;;;5.72;100.00;98118.38;5016630;28;20072;-44
2022/01/30 03:36:51;;;;;;;2.67;1.02;;;6.40;99.90;;;5.76;100.00;98119.22;5017026;28;20030;-46
2022/01/30 03:39:17;;;;;;;0.98;0.65;;;6.40;99.90;;;5.74;100.00;98111.38;5010843;28;20064;-44
2022/01/30 03:41:43;;;;;;;2.40;0.70;;;6.40;99.90;;;5.76;100.00;98120.94;5015122;28;20059;-45
2022/01/30 03:44:09;;;;;;;2.33;0.90;;;6.40;99.90;;;5.73;100.00;98116.59;5016893;28;20500;-42
2022/01/30 03:46:34;;;;;;;3.20;1.02;;;6.40;99.90;;;5.68;100.00;98121.00;5016920;28;20048;-45
2022/01/30 03:49:00;;;;;;;3.03;1.05;;;6.40;99.90;;;5.68;100.00;98124.47;5024049;28;20447;-46
2022/01/30 03:51:26;;;;;;;2.83;1.08;;;6.40;99.90;;;5.66;100.00;98131.47;5014348;28;20029;-45
2022/01/30 03:53:51;;;;;;;3.20;1.10;;;6.30;99.90;;;5.69;100.00;98126.22;5019026;28;20330;-46
2022/01/30 03:56:17;;;;;;;3.65;1.00;;;6.40;99.90;;;5.70;100.00;98129.69;5019066;28;20113;-45
2022/01/30 03:58:43;;;;;;;4.53;1.20;;;6.30;99.90;;;5.81;100.00;98124.41;5020998;28;20029;-45
2022/01/30 04:01:08;;;;;;;4.70;1.63;;;6.40;99.90;;;5.73;100.00;98129.69;5020493;28;20036;-44
2022/01/30 04:03:36;;;;;;;5.80;1.70;;;6.40;99.90;;;5.76;100.00;98132.31;5022620;28;20102;-46
2022/01/30 04:06:04;;;;;;;7.00;1.38;;;6.40;99.90;;;5.83;100.00;98123.53;5022026;28;20029;-44
2022/01/30 04:08:30;;;;;;;2.22;1.00;;;6.50;99.90;;;5.84;100.00;98120.03;5016969;28;20072;-46
2022/01/30 04:10:55;;;;;;;4.57;1.52;;;6.50;99.90;;;5.87;100.00;98130.47;5014204;28;20110;-45
2022/01/30 04:13:21;;;;;;;5.60;1.60;;;6.50;99.90;;;5.84;100.00;98132.25;5018400;28;20029;-45
2022/01/30 04:15:48;;;;;;;4.78;1.15;;;6.50;99.90;;;5.83;100.00;98139.25;5017719;28;20025;-45
2022/01/30 04:18:14;;;;;;;5.80;1.70;;;6.50;99.90;;;5.88;100.00;98141.81;5016042;28;20033;-41
2022/01/30 04:20:40;;;;;;;5.20;1.60;;;6.50;99.90;;;5.82;100.00;98157.56;5015044;28;20051;-47
2022/01/30 04:23:06;;;;;;;6.63;2.05;;;6.50;99.90;;;5.83;100.00;98133.13;5017055;28;20029;-45
2022/01/30 04:25:31;;;;;;;5.82;1.67;;;6.50;99.90;;;5.81;100.00;98146.19;5012552;28;20463;-46
2022/01/30 04:27:57;;;;;;;3.13;1.40;;;6.50;99.90;;;5.76;100.00;98155.84;5017981;28;20399;-45
2022/01/30 04:30:23;;;;;;;9.23;2.50;;;6.50;99.90;;;5.74;100.00;98145.41;5016418;28;20026;-44
2022/01/30 04:32:49;;;;;;;8.40;2.03;;;6.40;99.90;;;5.71;100.00;98145.41;5012921;28;20602;-43
2022/01/30 04:35:26;;;;;;;7.95;2.65;;;6.40;99.90;;;5.71;100.00;98136.69;5009305;28;20435;-46
2022/01/30 04:38:32;;;;;;;5.07;1.90;;;6.30;99.90;;;5.62;100.00;98144.59;5016073;28;20442;-45
2022/01/30 05:02:08;;;;;;;8.05;2.47;;;6.00;99.90;;;5.38;100.00;98146.44;5041470;28;20063;-52
2022/01/30 05:04:50;;;;;;;10.93;2.40;;;6.10;99.90;;;5.27;100.00;98143.84;5040254;28;20036;-53
2022/01/30 05:09:42;;;;;;;9.73;2.53;;;6.00;99.90;;;5.28;100.00;98157.81;5041866;28;20530;-51
2022/01/30 05:12:10;;;;;;;15.13;2.30;;;5.90;99.90;;;5.28;100.00;98152.59;5040922;28;20056;-48
2022/01/30 05:14:37;;;;;;;7.38;2.42;;;5.90;99.90;;;5.24;100.00;98156.97;5039822;28;20032;-49
2022/01/30 05:17:05;;;;;;;5.88;2.38;;;5.90;99.90;;;5.23;100.00;98159.59;5039237;28;20036;-54
2022/01/30 05:19:32;;;;;;;8.73;2.55;;;5.90;99.90;;;5.18;100.00;98148.25;5041677;28;20078;-51
2022/01/30 05:21:58;;;;;;;6.63;2.30;;;5.80;99.90;;;5.13;100.00;98157.00;5044427;28;20041;-51
2022/01/30 05:24:24;;;;;;;11.25;2.55;;;5.80;99.90;;;5.10;100.00;98158.75;5042371;28;20033;-50
2022/01/30 05:26:51;;;;;;;8.93;2.30;;;5.80;99.90;;;5.09;100.00;98165.72;5044238;28;20045;-50
2022/01/30 05:29:17;;;;;;;10.40;3.05;;;5.70;99.90;;;4.95;100.00;98176.22;5041749;28;20037;-53
2022/01/30 05:31:43;;;;;;;8.25;2.30;;;5.70;99.90;;;4.91;100.00;98176.22;5045517;28;20029;-50
2022/01/30 05:34:10;;;;;;;12.82;2.92;;;5.60;99.90;;;4.99;100.00;98192.78;5043424;28;20029;-51
2022/01/30 05:36:40;;;;;;;10.20;2.70;;;5.60;99.90;;;4.99;100.00;98187.53;5044066;28;20025;-49
2022/01/30 05:39:07;;;;;;;12.57;3.17;;;5.70;99.90;;;5.02;100.00;98190.13;5044326;28;20040;-52
2022/01/30 05:41:33;;;;;;;5.95;2.50;;;5.70;99.90;;;5.02;100.00;98191.88;5045337;28;20025;-49
2022/01/30 05:44:09;;;;;;;11.00;2.45;;;5.70;99.90;;;5.04;100.00;98201.44;5046125;28;20048;-52
2022/01/30 05:46:42;;;;;;;9.32;2.47;;;5.70;99.90;;;5.00;100.00;98197.09;5042827;28;20147;-52
2022/01/30 05:49:13;;;;;;;9.13;2.75;;;5.70;99.90;;;5.03;100.00;98207.56;5043337;28;20047;-54
2022/01/30 05:51:39;;;;;;;7.35;2.35;;;5.70;99.90;;;5.01;100.00;98208.44;5042608;28;20036;-51
2022/01/30 05:54:04;;;;;;;10.88;2.58;;;5.70;99.90;;;4.99;100.00;98221.53;5042570;28;20078;-50
2022/01/30 05:56:30;;;;;;;8.30;2.40;;;5.70;99.90;;;5.04;100.00;98226.72;5039597;28;20506;-47
2022/01/30 05:58:56;;;;;;;11.20;2.85;;;5.70;99.90;;;5.07;100.00;98230.22;5043393;28;20025;-50
2022/01/30 06:01:22;;;;;;;11.38;2.83;;;5.80;99.90;;;5.07;100.00;98245.91;5043593;28;20061;-50
2022/01/30 06:03:47;;;;;;;7.45;2.45;;;5.80;99.90;;;5.05;100.00;98242.41;5042370;28;20040;-53
2022/01/30 06:06:13;;;;;;;14.20;2.78;;;5.80;99.90;;;4.99;100.00;98237.22;5044873;28;20032;-50
2022/01/30 06:08:43;;;;;;;5.72;2.60;;;5.70;99.90;;;4.88;100.00;98223.25;5042292;28;20064;-50
2022/01/30 06:11:11;;;;;;;8.45;2.72;;;5.60;99.90;;;4.83;100.00;98235.47;5044966;28;20491;-53
2022/01/30 06:13:37;;;;;;;10.23;2.40;;;5.60;99.90;;;4.86;100.00;98243.31;5043906;28;20453;-49
2022/01/30 06:16:03;;;;;;;10.50;3.05;;;5.50;99.90;;;4.89;100.00;98240.69;5041713;28;20322;-48
2022/01/30 06:18:29;;;;;;;9.45;2.42;;;5.60;99.90;;;4.88;100.00;98250.28;5044717;28;20106;-52
2022/01/30 06:20:55;;;;;;;12.90;3.05;;;5.60;99.90;;;4.89;100.00;98261.63;5047670;28;20483;-53
2022/01/30 06:23:25;;;;;;;8.77;2.65;;;5.60;99.90;;;4.86;100.00;98261.59;5044154;28;20201;-55
2022/01/30 06:25:54;;;;;;;11.15;2.40;;;5.60;99.90;;;4.85;100.00;98265.09;5041662;28;20112;-52
2022/01/30 06:28:20;;;;;;;12.70;2.42;;;5.60;99.90;;;4.80;100.00;98262.47;5039805;28;20072;-54
2022/01/30 06:30:46;;;;;;;8.13;2.40;;;5.50;99.90;;;4.73;100.00;98274.66;5039456;28;20115;-52
2022/01/30 06:33:12;;;;;;;11.70;2.50;;;5.40;99.90;;;4.66;100.00;98274.66;5043281;28;20417;-51
2022/01/30 06:35:37;;;;;;;9.73;2.08;;;5.40;99.90;;;4.56;100.00;98294.72;5045110;28;20029;-50
2022/01/30 06:38:03;;;;;;;6.18;2.35;;;5.30;99.90;;;4.49;100.00;98279.91;5041189;28;20500;-52
2022/01/30 06:40:29;;;;;;;10.07;2.63;;;5.20;99.90;;;4.34;100.00;98284.22;5038998;28;20112;-51
2022/01/30 06:42:54;;;;;;;10.48;2.40;;;5.10;99.90;;;4.26;100.00;98288.53;5039522;28;20029;-51
2022/01/30 06:45:20;;;;;;;9.40;2.45;;;5.00;99.90;;;4.11;100.00;98292.00;5040473;28;20741;-51
2022/01/30 06:47:47;;;;;;;12.45;2.78;;;4.90;99.90;;;4.03;100.00;98291.09;5043025;28;20507;-50
2022/01/30 06:50:14;;;;;;;12.30;2.50;;;4.80;99.90;;;3.93;100.00;98292.81;5041325;28;20446;-52
2022/01/30 06:52:40;;;;;;;10.18;2.60;;;4.70;99.90;;;4.06;100.00;98288.50;5045254;28;20033;-49
2022/01/30 06:55:07;;;;;;;10.55;2.72;;;4.70;99.90;;;3.97;100.00;98294.56;5040001;28;20467;-51
2022/01/30 06:57:33;;;;;;;8.65;2.63;;;4.70;99.90;;;3.94;100.00;98291.06;5041112;28;20300;-52
2022/01/30 06:59:59;;;;;;;11.52;2.65;;;4.70;99.90;;;3.81;100.00;98287.53;5036475;28;20029;-52
2022/01/30 07:02:25;;;;;;;13.20;3.08;;;4.60;99.90;;;3.73;100.00;98284.91;5042022;28;20388;-53
2022/01/30 07:04:51;;;;;;;12.52;2.30;;;4.50;99.90;;;3.70;100.00;98287.47;5042784;28;20037;-51
2022/01/30 07:07:17;;;;;;;9.18;2.70;;;4.50;99.90;;;3.55;100.00;98257.00;5042442;28;20045;-50
2022/01/30 07:09:43;;;;;;;8.77;2.05;;;4.60;99.90;;;3.83;100.00;98298.84;5045135;28;20033;-54
2022/01/30 07:12:09;;;;;;;11.23;3.08;;;4.50;99.90;;;3.77;100.00;98306.66;5042992;28;20106;-49
2022/01/30 07:14:35;;;;;;;8.95;2.63;;;4.50;99.90;;;3.60;100.00;98310.03;5042585;28;20037;-49
2022/01/30 07:17:01;;;;;;;9.63;2.20;;;4.40;99.90;;;3.62;100.00;98323.09;5040630;28;20079;-49
2022/01/30 07:19:26;;;;;;;10.88;2.40;;;4.30;99.90;;;3.63;100.00;98320.47;5042633;28;20033;-50
2022/01/30 07:21:53;;;;;;;8.98;2.70;;;4.30;99.90;;;3.72;100.00;98319.66;5033229;28;20032;-48
2022/01/30 07:24:19;;;;;;;13.20;2.38;;;4.40;99.90;;;3.70;100.00;98316.19;5039057;28;20033;-50
2022/01/30 07:26:45;;;;;;;6.85;2.35;;;4.40;99.90;;;3.71;100.00;98330.94;5041731;28;20029;-50
2022/01/30 07:29:11;;;;;;;8.10;2.35;;;4.40;99.90;;;3.75;100.00;98337.06;5042754;28;20063;-49
2022/01/30 07:31:37;;;;;;;13.55;2.92;;;4.50;99.90;;;3.79;100.00;98346.66;5039235;28;20036;-50
2022/01/30 07:34:03;;;;;;;6.22;2.42;;;4.50;99.90;;;3.81;100.00;98350.16;5040305;28;20020;-52
2022/01/30 07:36:33;;;;;;;12.23;3.05;;;4.50;99.90;;;3.95;100.00;98348.50;5042314;28;20391;-48
2022/01/30 07:38:59;;;;;;;12.23;2.55;;;4.60;99.90;;;4.00;100.00;98353.72;5043347;28;20094;-51
2022/01/30 07:41:25;;;;;;;17.00;3.55;;;4.70;99.90;;;4.06;100.00;98348.53;5040430;28;20120;-51
2022/01/30 07:43:51;;;;;;;8.45;2.70;;;4.80;99.90;;;4.17;100.00;98367.72;5038221;28;20115;-49
2022/01/30 07:46:17;;;;;;;10.35;2.92;;;4.90;99.90;;;4.14;100.00;98354.63;5041600;28;20032;-50
2022/01/30 07:48:43;;;;;;;14.30;3.22;;;4.90;99.90;;;4.23;100.00;98364.25;5039537;28;20049;-52
2022/01/30 07:51:08;;;;;;;19.73;3.60;;;5.00;99.90;;;4.26;100.00;98353.81;5040375;28;20032;-50
2022/01/30 07:53:35;;;;;;;14.55;3.30;;;5.10;99.90;;;4.42;100.00;98361.72;5041492;28;20115;-53
2022/01/30 07:56:00;;;;;;;15.90;3.72;;;5.20;99.90;;;4.48;100.00;98362.59;5041773;28;20029;-51
2022/01/30 07:58:26;;;;;;;16.38;3.38;;;5.20;99.90;;;4.44;100.00;98375.66;5040264;28;20033;-52
2022/01/30 08:00:52;;;;;;;12.23;3.20;;;5.20;99.90;;;4.33;100.00;98365.19;5043573;28;20052;-49
2022/01/30 08:03:18;;;;;;;10.15;2.78;;;5.10;99.90;;;4.14;100.00;98356.38;5041586;28;20486;-49
2022/01/30 08:05:44;;;;;;;8.57;3.03;;;5.00;99.90;;;4.12;100.00;98372.03;5040197;28;20032;-49
2022/01/30 08:08:09;;;;;;;12.50;2.95;;;4.90;99.90;;;4.04;100.00;98368.53;5039784;28;20102;-40
2022/01/30 08:10:35;;;;;;;14.98;3.67;;;4.80;99.90;;;3.93;100.00;98370.22;5040266;28;20045;-43
2022/01/30 08:13:01;;;;;;;13.63;3.42;;;4.70;99.90;;;3.91;100.00;98383.28;5044781;28;20111;-43
2022/01/30 08:15:27;;;;;;;13.38;2.85;;;4.70;99.90;;;3.91;100.00;98367.63;5042074;28;20036;-51
2022/01/30 08:17:53;;;;;;;10.50;2.92;;;4.70;99.90;;;3.93;100.00;98384.16;5045815;28;20067;-46
2022/01/30 08:20:20;;;;;;;7.00;2.80;;;4.70;99.90;;;3.99;100.00;98380.69;5041864;28;20032;-46
2022/01/30 08:22:50;;;;;;;15.57;3.28;;;4.70;99.90;;;3.79;100.00;98362.31;5040489;28;20020;-41
2022/01/30 08:25:18;;;;;;;13.20;2.67;;;4.70;99.90;;;4.07;100.00;98373.75;5042829;28;20035;-46
2022/01/30 08:27:45;;;;;;;14.30;2.72;;;4.70;99.90;;;3.94;100.00;98371.97;5039575;28;20044;-44
2022/01/30 08:30:11;;;;;;;9.90;2.47;;;4.70;99.90;;;4.01;100.00;98366.78;5041834;28;20043;-40
2022/01/30 08:32:39;;;;;;;12.57;2.42;;;4.70;99.90;;;4.01;100.00;98366.78;5041412;28;20402;-46
2022/01/30 08:35:07;;;;;;;13.02;3.08;;;4.80;99.90;;;4.00;100.00;98361.53;5041210;28;20029;-41
2022/01/30 08:37:35;;;;;;;13.10;2.92;;;4.80;99.90;;;4.04;100.00;98362.44;5042163;28;20448;-42
2022/01/30 08:40:07;;;;;;;11.07;2.60;;;4.80;99.90;;;4.10;100.00;98357.25;5041483;28;20520;-46
2022/01/30 08:42:33;;;;;;;10.73;2.67;;;4.90;99.90;;;4.20;100.00;98361.66;5037961;28;20035;-47
2022/01/30 08:44:59;;;;;;;15.27;3.40;;;4.90;99.90;;;4.26;100.00;98359.06;5041780;28;20044;-43
2022/01/30 08:47:25;;;;;;;16.00;3.10;;;5.00;99.90;;;4.29;100.00;98348.63;5042123;28;20037;-44
2022/01/30 08:49:51;;;;;;;11.75;2.65;;;5.00;99.90;;;4.29;100.00;98346.00;5042473;28;20033;-45
2022/01/30 08:52:19;;;;;;;18.33;3.05;;;5.00;99.90;;;4.16;100.00;98345.09;5043725;28;20040;-43
2022/01/30 08:54:46;;;;;;;11.27;2.60;;;5.00;99.90;;;4.23;100.00;98345.97;5043542;28;20028;-45
2022/01/30 08:57:13;;;;;;;11.85;2.80;;;5.00;99.90;;;4.14;100.00;98345.94;5044251;28;20077;-47
2022/01/30 08:59:38;;;;;;;21.65;3.10;;;5.00;99.90;;;4.17;100.00;98341.59;5046077;28;20032;-47
2022/01/30 09:02:04;;;;;;;9.05;2.53;;;5.00;99.90;;;4.46;100.00;98353.03;5046495;28;20332;-45
2022/01/30 09:04:30;;;;;;;17.05;3.15;;;5.20;99.90;;;4.45;95.64;98348.66;5042689;28;20065;-42
2022/01/30 09:06:55;;;;;;;14.50;2.75;;;5.30;99.90;;;4.47;96.75;98345.19;5045485;28;20028;-42
2022/01/30 09:09:21;;;;;;;15.60;2.53;;;5.30;99.90;;;4.51;97.23;98349.56;5046706;28;20418;-44
2022/01/30 09:11:48;;;;;;;13.07;2.80;;;5.30;99.90;;;4.62;96.43;98356.53;5042273;28;20394;-43
2022/01/30 09:14:15;;;;;;;9.40;2.63;;;5.40;99.90;;;4.60;96.59;98353.94;5047639;28;20184;-44
2022/01/30 09:16:42;;;;;;;9.65;2.33;;;5.40;99.90;;;4.68;97.68;98362.63;5043914;28;20659;-46
2022/01/30 09:19:08;;;;;;;12.70;2.70;;;5.40;99.90;;;4.69;93.29;98346.09;5045315;28;20025;-40
2022/01/30 09:21:33;;;;;;;13.75;2.92;;;5.40;99.90;;;4.62;95.49;98335.66;5042761;28;20032;-38
2022/01/30 09:23:59;;;;;;;8.40;2.20;;;5.40;99.90;;;4.61;97.97;98336.50;5044993;28;20056;-52
2022/01/30 09:26:25;;;;;;;11.45;2.40;;;5.40;99.90;;;4.80;97.66;98345.25;5047405;28;20036;-47
2022/01/30 09:28:51;;;;;;;13.55;2.30;;;5.50;99.90;;;4.70;93.17;98349.56;5044472;28;20037;-41
2022/01/30 09:31:16;;;;;;;10.73;2.70;;;5.50;99.90;;;4.68;94.36;98359.16;5044608;28;20045;-41
2022/01/30 09:33:42;;;;;;;13.32;2.72;;;5.50;99.90;;;4.66;95.29;98367.00;5043810;28;20052;-47
2022/01/30 09:36:08;;;;;;;17.27;3.22;;;5.40;99.90;;;4.57;95.21;98372.19;5045243;28;20025;-42
2022/01/30 09:38:34;;;;;;;11.68;2.88;;;5.40;99.90;;;4.51;96.99;98366.97;5044679;28;20036;-42
2022/01/30 09:41:00;;;;;;;13.25;3.30;;;5.30;99.90;;;4.58;96.85;98363.50;5045984;28;20343;-46
2022/01/30 09:43:29;;;;;;;13.52;2.90;;;5.40;99.90;;;4.66;98.00;98353.06;5041471;28;20414;-49
2022/01/30 09:45:58;;;;;;;15.63;2.83;;;5.40;99.90;;;4.82;98.31;98354.81;5044319;28;20028;-41
2022/01/30 09:48:24;;;;;;;10.95;3.08;;;5.60;99.90;;;4.86;95.35;98351.34;5040353;28;20514;-45
2022/01/30 09:50:52;;;;;;;10.95;2.35;;;5.60;99.90;;;5.12;93.93;98353.13;5043048;28;20033;-44
2022/01/30 09:53:18;;;;;;;11.20;2.38;;;5.80;99.90;;;5.18;96.41;98357.47;5024225;28;20060;-43
2022/01/30 09:55:44;;;;;;;10.93;3.08;;;5.90;99.90;;;5.16;95.16;98366.19;5044315;28;20027;-42
2022/01/30 09:58:09;;;;;;;12.07;3.25;;;6.00;99.90;;;5.09;92.74;98371.41;5040933;28;20397;-48
2022/01/30 10:00:36;;;;;;;11.13;3.08;;;5.80;99.90;;;4.96;94.07;98368.78;5043819;28;20035;-38
2022/01/30 10:03:01;;;;;;;15.98;3.15;;;5.80;99.90;;;4.87;91.53;98362.69;5044964;28;20029;-45
2022/01/30 10:05:33;;;;;;;17.70;3.08;;;5.70;99.90;;;4.89;90.76;98384.47;5042350;28;20289;-47
2022/01/30 10:07:59;;;;;;;10.98;2.47;;;5.70;99.90;;;5.01;91.93;98389.72;5044673;28;20104;-48
2022/01/30 10:10:28;;;;;;;15.93;2.80;;;5.70;99.90;;;5.05;89.30;98386.22;5045045;28;20518;-47
2022/01/30 10:13:11;;;;;;;13.43;2.72;;;5.80;99.90;;;5.22;90.68;98395.81;5046722;28;20025;-42
2022/01/30 10:15:54;;;;;;;12.98;2.65;;;6.00;99.90;;;5.32;89.07;98397.56;5045073;28;20017;-41
2022/01/30 10:18:21;;;;;;;15.13;2.95;;;6.10;99.90;;;5.55;91.23;98392.34;5045481;28;20438;-43
2022/01/30 10:20:47;;;;;;;12.32;3.00;;;6.20;99.90;;;5.75;88.32;98408.00;5044966;28;20277;-41
2022/01/30 10:23:13;;;;;;;12.05;2.88;;;6.40;99.90;;;5.85;88.46;98407.13;5044316;28;20129;-40
2022/01/30 10:25:47;;;;;;;17.05;3.05;;;6.60;99.90;;;6.07;86.84;98409.72;5042139;28;20021;-39
2022/01/30 10:28:29;;;;;;;12.82;2.83;;;6.80;99.90;;;6.07;84.46;98413.22;5044537;28;20040;-48
2022/01/30 10:30:59;;;;;;;8.77;2.03;;;6.80;99.90;;;5.84;79.93;98410.59;5042170;28;20029;-40
2022/01/30 10:33:56;;;;;;;14.57;2.78;;;6.80;99.90;;;5.79;80.93;98424.59;5046172;28;20080;-48
2022/01/30 10:36:29;;;;;;;11.02;2.42;;;6.70;99.90;;;5.65;79.09;98428.09;5044254;28;20119;-42
2022/01/30 10:39:12;;;;;;;12.05;2.45;;;6.60;99.90;;;5.63;77.68;98423.72;5045621;28;20028;-42
2022/01/30 10:41:46;;;;;;;12.80;2.35;;;6.50;99.90;;;5.61;80.25;98421.09;5041957;28;20076;-48
2022/01/30 10:44:12;;;;;;;15.63;2.90;;;6.40;99.90;;;5.55;81.05;98418.50;5045625;28;20544;-46
2022/01/30 10:46:53;;;;;;;11.52;2.30;;;6.50;99.90;;;5.64;77.65;98428.97;5043572;28;20033;-41
2022/01/30 10:49:22;;;;;;;13.43;2.70;;;6.50;99.90;;;5.61;74.92;98428.94;5043630;28;20426;-42
2022/01/30 10:52:01;;;;;;;12.02;2.30;;;6.50;99.90;;;5.80;73.66;98416.72;5042815;28;20295;-45
2022/01/30 10:54:33;;;;;;;13.55;2.67;;;6.60;99.90;;;5.89;74.51;98428.94;5042306;28;20349;-41
2022/01/30 10:57:10;;;;;;;10.68;1.95;;;6.60;99.90;;;5.81;73.94;98434.16;5044797;28;20302;-40
2022/01/30 10:59:42;;;;;;;17.33;2.45;;;6.70;99.90;;;5.71;74.89;98411.50;5040845;28;20037;-41
2022/01/30 11:02:20;;;;;;;6.65;2.08;;;6.60;99.90;;;6.00;74.48;98421.09;5039097;28;20037;-38
2022/01/30 11:04:48;;;;;;;10.40;2.88;;;6.70;99.90;;;5.87;72.95;98434.19;5039063;28;20041;-41
2022/01/30 11:07:21;;;;;;;18.08;3.40;;;6.80;99.90;;;5.97;75.57;98434.19;5043924;28;20024;-38
2022/01/30 11:10:09;;;;;;;9.43;2.03;;;6.80;99.90;;;6.28;74.99;98425.38;5041595;28;20103;-39
2022/01/30 11:15:23;;;;;;;;;;;7.00;99.90;;;6.01;73.77;98423.72;5041091;28;20024;-39
2022/01/30 11:17:50;;;;;;;12.57;2.10;;;6.90;99.90;;;6.09;73.12;98424.53;5039694;28;19917;-39
2022/01/30 11:20:17;;;;;;;13.32;2.58;;;7.00;99.90;;;6.09;75.49;98426.31;5046153;28;20025;-38
2022/01/30 11:22:46;;;;;;;11.52;2.50;;;7.10;99.90;;;5.97;74.12;98419.34;5039038;28;20422;-39
2022/01/30 11:25:12;;;;;;;14.55;2.50;;;6.90;99.90;;;5.83;77.39;98406.25;5044118;28;20033;-37